createdAt,value
2022-08-21T00:01:05.611Z,100186.17
2022-08-21T00:03:39.843Z,100187.76
2022-08-21T00:06:13.851Z,100193.98
2022-08-21T00:08:46.270Z,100197.66
2022-08-21T00:11:18.435Z,100199.60
2022-08-21T00:13:51.182Z,100198.95
2022-08-21T00:16:23.725Z,100194.23
2022-08-21T00:18:56.716Z,100192.05
2022-08-21T00:21:29.250Z,100195.55
2022-08-21T00:24:01.830Z,100201.01
2022-08-21T00:26:34.065Z,100202.64
2022-08-21T00:29:06.101Z,100200.18
2022-08-21T00:31:37.824Z,100199.95
2022-08-21T00:34:10.001Z,100198.20
2022-08-21T00:36:42.276Z,100193.29
2022-08-21T00:39:14.057Z,100190.16
2022-08-21T00:41:46.267Z,100187.38
2022-08-21T00:44:19.165Z,100190.05
2022-08-21T00:46:50.888Z,100197.74
2022-08-21T00:49:23.018Z,100195.48
2022-08-21T00:51:59.063Z,100190.56
2022-08-21T00:54:34.462Z,100192.90
2022-08-21T00:57:12.791Z,100194.55
2022-08-21T00:59:48.609Z,100190.98
2022-08-21T01:02:22.124Z,100188.50
2022-08-21T01:04:54.354Z,100186.83
2022-08-21T01:07:27.643Z,100180.31
2022-08-21T01:10:00.364Z,100182.63
2022-08-21T01:12:33.262Z,100180.80
2022-08-21T01:15:09.142Z,100179.93
2022-08-21T01:17:41.376Z,100175.22
2022-08-21T01:20:15.636Z,100173.13
2022-08-21T01:22:47.486Z,100172.30
2022-08-21T01:25:21.609Z,100173.55
2022-08-21T01:27:54.160Z,100169.20
2022-08-21T01:30:29.507Z,100166.71
2022-08-21T01:33:02.035Z,100166.13
2022-08-21T01:35:34.406Z,100170.98
2022-08-21T01:38:06.786Z,100170.45
2022-08-21T01:40:38.976Z,100168.55
2022-08-21T01:43:10.701Z,100169.02
2022-08-21T01:45:42.941Z,100169.08
2022-08-21T01:48:14.856Z,100168.39
2022-08-21T01:50:46.710Z,100162.39
2022-08-21T01:53:18.992Z,100160.17
2022-08-21T01:55:59.788Z,100165.15
2022-08-21T01:58:32.233Z,100159.27
2022-08-21T02:01:05.113Z,100162.04
2022-08-21T02:03:37.573Z,100158.86
2022-08-21T02:06:14.930Z,100156.86
2022-08-21T02:08:47.161Z,100152.21
2022-08-21T02:11:19.247Z,100148.95
2022-08-21T02:13:50.989Z,100146.63
2022-08-21T02:16:23.174Z,100148.24
2022-08-21T02:18:55.757Z,100147.63
2022-08-21T02:21:27.556Z,100145.29
2022-08-21T02:23:59.943Z,100143.90
2022-08-21T02:26:32.010Z,100143.22
2022-08-21T02:29:05.173Z,100138.81
2022-08-21T02:31:37.780Z,100137.15
2022-08-21T02:34:09.939Z,100137.05
2022-08-21T02:36:42.009Z,100129.96
2022-08-21T02:39:15.015Z,100129.10
2022-08-21T02:41:47.177Z,100127.70
2022-08-21T02:44:18.935Z,100127.94
2022-08-21T02:46:51.486Z,100129.15
2022-08-21T02:49:23.772Z,100126.83
2022-08-21T02:51:55.591Z,100124.66
2022-08-21T02:54:27.589Z,100130.15
2022-08-21T02:56:59.379Z,100131.36
2022-08-21T02:59:31.170Z,100132.67
2022-08-21T03:02:03.372Z,100135.41
2022-08-21T03:04:35.093Z,100133.73
2022-08-21T03:07:11.035Z,100135.89
2022-08-21T03:09:55.311Z,100138.61
2022-08-21T03:12:30.203Z,100146.09
2022-08-21T03:15:02.880Z,100138.44
2022-08-21T03:17:35.025Z,100142.78
2022-08-21T03:20:08.341Z,100144.04
2022-08-21T03:22:40.172Z,100145.33
2022-08-21T03:25:12.987Z,100140.65
2022-08-21T03:27:44.970Z,100144.84
2022-08-21T03:30:17.596Z,100144.16
2022-08-21T03:32:49.287Z,100146.42
2022-08-21T03:35:22.289Z,100147.59
2022-08-21T03:37:55.462Z,100154.27
2022-08-21T03:40:28.169Z,100154.54
2022-08-21T03:43:00.289Z,100156.73
2022-08-21T03:45:33.440Z,100160.86
2022-08-21T03:48:07.720Z,100157.55
2022-08-21T03:50:44.053Z,100159.60
2022-08-21T03:53:17.998Z,100164.02
2022-08-21T03:55:53.560Z,100168.14
2022-08-21T03:58:29.366Z,100172.96
2022-08-21T04:01:02.664Z,100176.29
2022-08-21T04:03:37.168Z,100176.29
2022-08-21T04:06:10.277Z,100189.15
2022-08-21T04:08:44.038Z,100192.33
2022-08-21T04:11:16.325Z,100203.70
2022-08-21T04:13:48.789Z,100206.26
2022-08-21T04:16:20.524Z,100213.30
2022-08-21T04:18:53.458Z,100212.17
2022-08-21T04:21:25.104Z,100215.52
2022-08-21T04:23:59.371Z,100211.42
2022-08-21T04:26:32.453Z,100207.81
2022-08-21T04:29:05.828Z,100204.34
2022-08-21T04:31:38.885Z,100199.77
2022-08-21T04:34:11.008Z,100206.66
2022-08-21T04:36:42.859Z,100203.35
2022-08-21T04:39:14.976Z,100209.86
2022-08-21T04:41:47.950Z,100210.83
2022-08-21T04:44:20.025Z,100207.27
2022-08-21T04:46:51.768Z,100208.58
2022-08-21T04:49:23.436Z,100204.93
2022-08-21T04:51:55.561Z,100208.02
2022-08-21T04:54:27.925Z,100206.75
2022-08-21T04:57:05.251Z,100212.73
2022-08-21T04:59:41.448Z,100212.86
2022-08-21T05:02:14.819Z,100213.82
2022-08-21T05:04:50.785Z,100215.27
2022-08-21T05:07:42.637Z,100218.83
2022-08-21T05:10:17.803Z,100218.16
2022-08-21T05:12:50.983Z,100216.39
2022-08-21T05:15:23.516Z,100217.10
2022-08-21T05:18:01.360Z,100222.05
2022-08-21T05:20:35.402Z,100227.17
2022-08-21T05:23:11.225Z,100233.36
2022-08-21T05:25:44.380Z,100232.63
2022-08-21T05:28:19.113Z,100237.52
2022-08-21T05:30:51.899Z,100239.73
2022-08-21T05:33:24.479Z,100239.20
2022-08-21T05:35:57.928Z,100234.31
2022-08-21T05:38:29.613Z,100230.81
2022-08-21T05:41:01.750Z,100230.48
2022-08-21T05:43:33.984Z,100225.36
2022-08-21T05:46:06.476Z,100225.36
2022-08-21T05:48:40.073Z,100228.21
2022-08-21T05:51:13.833Z,100227.05
2022-08-21T05:53:47.281Z,100224.48
2022-08-21T05:56:19.166Z,100222.08
2022-08-21T05:58:51.285Z,100223.85
2022-08-21T06:01:23.720Z,100218.67
2022-08-21T06:03:56.779Z,100221.09
2022-08-21T06:06:29.104Z,100221.29
2022-08-21T06:09:00.845Z,100220.16
2022-08-21T06:11:32.878Z,100218.59
2022-08-21T06:14:07.386Z,100213.77
2022-08-21T06:16:39.087Z,100206.70
2022-08-21T06:19:10.717Z,100198.36
2022-08-21T06:21:42.450Z,100193.84
2022-08-21T06:24:14.723Z,100201.65
2022-08-21T06:26:47.392Z,100198.16
2022-08-21T06:29:20.649Z,100196.59
2022-08-21T06:31:53.570Z,100192.73
2022-08-21T06:34:25.775Z,100184.30
2022-08-21T06:36:57.547Z,100183.73
2022-08-21T06:39:30.650Z,100186.49
2022-08-21T06:42:04.591Z,100195.70
2022-08-21T06:44:43.183Z,100202.18
2022-08-21T06:47:15.581Z,100206.30
2022-08-21T06:49:47.668Z,100219.59
2022-08-21T06:52:19.603Z,100224.52
2022-08-21T06:54:51.941Z,100227.85
2022-08-21T06:57:23.944Z,100231.06
2022-08-21T06:59:56.232Z,100237.99
2022-08-21T07:02:28.183Z,100236.23
2022-08-21T07:05:00.199Z,100241.63
2022-08-21T07:07:31.878Z,100254.64
2022-08-21T07:10:03.744Z,100254.92
2022-08-21T07:12:35.549Z,100259.05
2022-08-21T07:15:10.328Z,100258.73
2022-08-21T07:17:42.219Z,100259.96
2022-08-21T07:20:15.042Z,100254.40
2022-08-21T07:22:47.669Z,100256.23
2022-08-21T07:25:18.203Z,100251.83
2022-08-21T07:27:49.993Z,100253.48
2022-08-21T07:30:22.274Z,100250.17
2022-08-21T07:32:54.088Z,100250.48
2022-08-21T07:35:28.934Z,100248.70
2022-08-21T07:38:40.645Z,100247.23
2022-08-21T07:41:30.997Z,100245.48
2022-08-21T07:44:04.300Z,100243.72
2022-08-21T07:46:38.837Z,100246.35
2022-08-21T07:49:11.597Z,100243.33
2022-08-21T07:51:41.870Z,100240.87
2022-08-21T07:54:14.531Z,100240.15
2022-08-21T07:56:49.298Z,100244.79
2022-08-21T07:59:21.032Z,100243.02
2022-08-21T08:01:53.321Z,100243.91
2022-08-21T08:04:26.548Z,100247.66
2022-08-21T08:06:59.225Z,100244.70
2022-08-21T08:09:31.367Z,100251.81
2022-08-21T08:12:05.146Z,100251.57
2022-08-21T08:14:37.149Z,100249.91
2022-08-21T08:17:08.099Z,100256.39
2022-08-21T08:19:40.138Z,100257.69
2022-08-21T08:22:20.363Z,100256.09
2022-08-21T08:24:52.484Z,100256.42
2022-08-21T08:27:24.816Z,100262.66
2022-08-21T08:29:56.569Z,100266.70
2022-08-21T08:32:28.310Z,100272.16
2022-08-21T08:35:01.361Z,100270.48
2022-08-21T08:37:34.773Z,100272.40
2022-08-21T08:40:09.167Z,100282.09
2022-08-21T08:42:41.015Z,100278.64
2022-08-21T08:45:17.709Z,100281.52
2022-08-21T08:47:56.628Z,100279.80
2022-08-21T08:50:35.896Z,100278.41
2022-08-21T08:53:13.336Z,100274.83
2022-08-21T08:55:47.077Z,100267.02
2022-08-21T08:58:25.591Z,100264.40
2022-08-21T09:00:58.637Z,100264.59
2022-08-21T09:03:34.239Z,100261.08
2022-08-21T09:06:14.584Z,100264.37
2022-08-21T09:08:56.551Z,100276.26
2022-08-21T09:11:36.517Z,100283.55
2022-08-21T09:14:19.012Z,100284.96
2022-08-21T09:16:58.881Z,100280.61
2022-08-21T09:19:48.515Z,100271.02
2022-08-21T09:22:31.326Z,100269.55
2022-08-21T09:25:11.131Z,100271.26
2022-08-21T09:27:42.874Z,100280.48
2022-08-21T09:30:15.410Z,100288.35
2022-08-21T09:32:47.447Z,100292.23
2022-08-21T09:35:21.588Z,100292.28
2022-08-21T09:37:57.719Z,100298.39
2022-08-21T09:40:38.457Z,100298.21
2022-08-21T09:43:20.872Z,100298.30
2022-08-21T09:46:04.438Z,100289.81
2022-08-21T09:48:47.209Z,100286.42
2022-08-21T09:51:21.762Z,100282.73
2022-08-21T09:53:58.308Z,100284.28
2022-08-21T09:56:57.178Z,100287.58
2022-08-21T09:59:36.829Z,100286.52
2022-08-21T10:02:27.404Z,100288.14
2022-08-21T10:05:04.372Z,100289.41
2022-08-21T10:07:38.890Z,100289.25
2022-08-21T10:10:18.032Z,100289.13
2022-08-21T10:13:00.012Z,100295.46
2022-08-21T10:15:43.512Z,100305.71
2022-08-21T10:18:23.537Z,100310.52
2022-08-21T10:21:03.063Z,100315.90
2022-08-21T10:23:49.191Z,100316.34
2022-08-21T10:26:33.676Z,100310.14
2022-08-21T10:29:15.132Z,100312.15
2022-08-21T10:31:56.073Z,100311.67
2022-08-21T10:34:43.339Z,100305.30
2022-08-21T10:37:34.275Z,100306.63
2022-08-21T10:40:17.286Z,100305.20
2022-08-21T10:43:03.742Z,100302.20
2022-08-21T10:45:51.158Z,100301.91
2022-08-21T10:48:31.230Z,100292.64
2022-08-21T10:51:09.788Z,100292.27
2022-08-21T10:53:52.708Z,100289.11
2022-08-21T10:56:28.733Z,100288.09
2022-08-21T10:59:24.649Z,100291.48
2022-08-21T11:02:03.208Z,100293.64
2022-08-21T11:04:49.400Z,100292.30
2022-08-21T11:07:33.996Z,100291.84
2022-08-21T11:10:12.711Z,100295.75
2022-08-21T11:12:48.494Z,100291.02
2022-08-21T11:15:39.295Z,100286.41
2022-08-21T11:18:23.944Z,100279.92
2022-08-21T11:21:04.833Z,100275.65
2022-08-21T11:23:44.462Z,100281.48
2022-08-21T11:26:21.217Z,100282.13
2022-08-21T11:28:57.833Z,100283.73
2022-08-21T11:31:45.716Z,100286.78
2022-08-21T11:34:32.830Z,100285.73
2022-08-21T11:37:14.827Z,100280.83
2022-08-21T11:39:58.300Z,100274.90
2022-08-21T11:42:40.620Z,100267.58
2022-08-21T11:45:26.177Z,100261.05
2022-08-21T11:48:09.830Z,100255.47
2022-08-21T11:50:45.435Z,100243.34
2022-08-21T11:53:27.939Z,100234.63
2022-08-21T11:56:06.214Z,100238.36
2022-08-21T11:58:43.490Z,100242.27
2022-08-21T12:01:21.443Z,100253.42
2022-08-21T12:04:00.222Z,100261.16
2022-08-21T12:06:36.678Z,100265.08
2022-08-21T12:09:11.715Z,100268.31
2022-08-21T12:11:53.062Z,100277.72
2022-08-21T12:14:24.795Z,100281.95
2022-08-21T12:17:08.862Z,100280.00
2022-08-21T12:19:44.537Z,100285.36
2022-08-21T12:22:17.000Z,100281.70
2022-08-21T12:24:52.688Z,100283.88
2022-08-21T12:27:30.568Z,100285.45
2022-08-21T12:30:08.009Z,100291.58
2022-08-21T12:32:56.376Z,100292.84
2022-08-21T12:35:33.483Z,100300.23
2022-08-21T12:38:11.889Z,100298.17
2022-08-21T12:40:48.469Z,100300.70
2022-08-21T12:43:27.031Z,100298.53
2022-08-21T12:46:01.512Z,100300.23
2022-08-21T12:48:37.878Z,100301.91
2022-08-21T12:51:15.408Z,100303.15
2022-08-21T12:53:54.141Z,100306.75
2022-08-21T12:56:29.509Z,100307.95
2022-08-21T12:59:06.406Z,100312.74
2022-08-21T13:01:42.092Z,100312.95
2022-08-21T13:04:18.337Z,100312.52
2022-08-21T13:06:54.904Z,100313.86
2022-08-21T13:09:32.015Z,100310.05
2022-08-21T13:12:03.986Z,100309.17
2022-08-21T13:14:45.203Z,100309.98
2022-08-21T13:17:25.736Z,100307.06
2022-08-21T13:20:01.799Z,100309.92
2022-08-21T13:22:37.570Z,100310.47
2022-08-21T13:25:14.505Z,100309.39
2022-08-21T13:27:58.147Z,100311.74
2022-08-21T13:30:31.455Z,100311.45
2022-08-21T13:33:12.901Z,100320.16
2022-08-21T13:35:53.849Z,100322.48
2022-08-21T13:38:29.173Z,100327.30
2022-08-21T13:41:04.976Z,100329.52
2022-08-21T13:43:38.813Z,100333.57
2022-08-21T13:46:15.820Z,100336.19
2022-08-21T13:48:48.500Z,100335.59
2022-08-21T13:51:21.086Z,100338.48
2022-08-21T13:53:56.688Z,100341.48
2022-08-21T13:56:30.796Z,100341.90
2022-08-21T13:59:04.875Z,100345.70
2022-08-21T14:01:41.151Z,100348.80
2022-08-21T14:04:22.976Z,100347.51
2022-08-21T14:06:55.315Z,100348.41
2022-08-21T14:09:34.108Z,100350.69
2022-08-21T14:12:23.324Z,100350.63
2022-08-21T14:14:58.645Z,100353.02
2022-08-21T14:17:34.204Z,100351.23
2022-08-21T14:20:08.660Z,100357.80
2022-08-21T14:22:44.455Z,100365.86
2022-08-21T14:25:31.454Z,100362.48
2022-08-21T14:28:20.977Z,100369.77
2022-08-21T14:30:54.064Z,100377.15
2022-08-21T14:33:27.183Z,100380.86
2022-08-21T14:35:59.299Z,100383.94
2022-08-21T14:38:33.233Z,100386.55
2022-08-21T14:41:20.353Z,100383.71
2022-08-21T14:43:59.809Z,100387.30
2022-08-21T14:46:51.587Z,100388.23
2022-08-21T14:49:30.974Z,100388.45
2022-08-21T14:52:03.292Z,100386.77
2022-08-21T14:54:35.000Z,100384.02
2022-08-21T14:57:09.612Z,100388.77
2022-08-21T14:59:42.941Z,100392.15
2022-08-21T15:02:15.002Z,100392.86
2022-08-21T15:04:47.134Z,100393.45
2022-08-21T15:07:19.178Z,100396.42
2022-08-21T15:09:51.122Z,100401.95
2022-08-21T15:12:23.158Z,100403.97
2022-08-21T15:14:55.473Z,100412.21
2022-08-21T15:17:27.860Z,100411.40
2022-08-21T15:19:59.966Z,100412.52
2022-08-21T15:22:33.031Z,100410.25
2022-08-21T15:25:05.690Z,100405.81
2022-08-21T15:27:38.986Z,100409.02
2022-08-21T15:30:12.822Z,100409.42
2022-08-21T15:32:44.863Z,100405.35
2022-08-21T15:35:16.680Z,100408.18
2022-08-21T15:37:48.438Z,100408.86
2022-08-21T15:40:20.841Z,100412.11
2022-08-21T15:42:53.841Z,100410.67
2022-08-21T15:45:26.182Z,100411.66
2022-08-21T15:47:58.937Z,100409.84
2022-08-21T15:50:32.968Z,100412.54
2022-08-21T15:53:04.820Z,100416.86
2022-08-21T15:55:37.954Z,100408.34
2022-08-21T15:58:14.082Z,100405.61
2022-08-21T16:00:47.913Z,100404.02
2022-08-21T16:03:22.986Z,100407.04
2022-08-21T16:05:56.625Z,100411.77
2022-08-21T16:08:28.488Z,100411.61
2022-08-21T16:11:01.901Z,100411.73
2022-08-21T16:13:40.084Z,100417.35
2022-08-21T16:16:13.174Z,100415.17
2022-08-21T16:18:45.302Z,100413.90
2022-08-21T16:21:17.884Z,100416.42
2022-08-21T16:23:49.752Z,100410.04
2022-08-21T16:26:21.783Z,100411.00
2022-08-21T16:28:58.858Z,100408.95
2022-08-21T16:31:31.874Z,100409.70
2022-08-21T16:34:04.012Z,100416.17
2022-08-21T16:36:36.157Z,100414.52
2022-08-21T16:39:08.279Z,100415.16
2022-08-21T16:41:40.277Z,100412.55
2022-08-21T16:44:12.210Z,100408.77
2022-08-21T16:46:44.489Z,100414.39
2022-08-21T16:49:16.382Z,100411.92
2022-08-21T16:51:49.106Z,100410.02
2022-08-21T16:54:21.796Z,100407.48
2022-08-21T16:56:55.051Z,100406.30
2022-08-21T16:59:27.078Z,100409.30
2022-08-21T17:01:59.523Z,100411.45
2022-08-21T17:04:31.504Z,100417.79
2022-08-21T17:07:03.382Z,100418.15
2022-08-21T17:09:36.346Z,100417.90
2022-08-21T17:12:09.101Z,100427.95
2022-08-21T17:14:39.316Z,100435.44
2022-08-21T17:17:12.289Z,100428.49
2022-08-21T17:19:44.833Z,100430.60
2022-08-21T17:22:16.777Z,100431.52
2022-08-21T17:24:48.466Z,100433.53
2022-08-21T17:27:21.437Z,100430.45
2022-08-21T17:29:59.255Z,100433.05
2022-08-21T17:32:31.900Z,100436.34
2022-08-21T17:35:04.056Z,100435.48
2022-08-21T17:37:36.348Z,100438.02
2022-08-21T17:40:14.392Z,100434.25
2022-08-21T17:42:48.630Z,100437.42
2022-08-21T17:45:23.085Z,100441.48
2022-08-21T17:47:54.809Z,100437.77
2022-08-21T17:50:28.210Z,100440.41
2022-08-21T17:53:00.095Z,100446.83
2022-08-21T17:55:32.806Z,100448.80
2022-08-21T17:58:05.568Z,100446.58
2022-08-21T18:00:38.797Z,100447.68
2022-08-21T18:03:17.006Z,100450.03
2022-08-21T18:05:53.798Z,100449.11
2022-08-21T18:08:26.288Z,100451.48
2022-08-21T18:10:59.103Z,100453.30
2022-08-21T18:13:35.181Z,100453.16
2022-08-21T18:16:08.193Z,100453.24
2022-08-21T18:18:44.129Z,100449.84
2022-08-21T18:21:16.730Z,100448.00
2022-08-21T18:23:49.577Z,100449.89
2022-08-21T18:26:30.641Z,100450.36
2022-08-21T18:29:03.596Z,100457.26
2022-08-21T18:31:38.016Z,100452.15
2022-08-21T18:34:19.589Z,100458.70
2022-08-21T18:36:53.574Z,100456.10
2022-08-21T18:39:36.376Z,100458.73
2022-08-21T18:42:12.905Z,100456.77
2022-08-21T18:44:48.193Z,100456.73
2022-08-21T18:47:25.536Z,100456.29
2022-08-21T18:49:57.928Z,100452.11
2022-08-21T18:52:30.682Z,100457.13
2022-08-21T18:55:01.800Z,100458.48
2022-08-21T18:57:41.190Z,100460.20
2022-08-21T19:00:17.234Z,100459.56
2022-08-21T19:02:50.089Z,100462.33
2022-08-21T19:05:23.219Z,100458.59
2022-08-21T19:07:56.906Z,100456.52
2022-08-21T19:10:30.561Z,100455.73
2022-08-21T19:13:04.451Z,100458.40
2022-08-21T19:15:42.412Z,100453.64
2022-08-21T19:18:16.468Z,100450.77
2022-08-21T19:20:49.072Z,100454.41
2022-08-21T19:23:29.275Z,100455.23
2022-08-21T19:26:04.993Z,100457.67
2022-08-21T19:28:39.803Z,100450.44
2022-08-21T19:31:16.328Z,100451.46
2022-08-21T19:33:55.094Z,100449.23
2022-08-21T19:36:30.089Z,100443.61
2022-08-21T19:39:07.285Z,100445.72
2022-08-21T19:41:45.486Z,100448.92
2022-08-21T19:44:21.462Z,100450.02
2022-08-21T19:46:57.577Z,100451.20
2022-08-21T19:49:33.431Z,100450.03
2022-08-21T19:54:58.533Z,100457.83
2022-08-21T19:57:30.606Z,100459.47
2022-08-21T20:00:05.385Z,100458.35
2022-08-21T20:02:39.764Z,100457.08
2022-08-21T20:05:31.423Z,100461.58
2022-08-21T20:08:20.593Z,100462.88
2022-08-21T20:10:55.979Z,100461.08
2022-08-21T20:13:33.702Z,100457.71
2022-08-21T20:16:10.194Z,100454.14
2022-08-21T20:18:42.524Z,100452.95
2022-08-21T20:21:16.129Z,100453.33
2022-08-21T20:23:49.224Z,100453.88
2022-08-21T20:26:22.288Z,100452.14
2022-08-21T20:28:55.450Z,100446.30
2022-08-21T20:31:27.930Z,100445.55
2022-08-21T20:33:58.616Z,100446.14
2022-08-21T20:36:30.949Z,100442.71
2022-08-21T20:39:02.820Z,100442.91
2022-08-21T20:41:35.737Z,100446.84
2022-08-21T20:44:13.071Z,100445.34
2022-08-21T20:46:45.458Z,100450.40
2022-08-21T20:49:26.640Z,100452.16
2022-08-21T20:52:00.067Z,100449.52
2022-08-21T20:54:36.396Z,100450.42
2022-08-21T20:57:14.768Z,100444.50
2022-08-21T20:59:52.881Z,100444.16
2022-08-21T21:02:36.684Z,100437.19
2022-08-21T21:05:13.692Z,100441.19
2022-08-21T21:07:55.564Z,100440.84
2022-08-21T21:10:32.500Z,100443.40
2022-08-21T21:13:11.858Z,100444.39
2022-08-21T21:15:45.964Z,100446.15
2022-08-21T21:21:21.537Z,100451.70
2022-08-21T21:24:02.229Z,100458.14
2022-08-21T21:26:39.651Z,100461.80
2022-08-21T21:29:23.868Z,100466.84
2022-08-21T21:31:57.092Z,100467.85
2022-08-21T21:34:34.488Z,100465.33
2022-08-21T21:37:08.662Z,100466.48
2022-08-21T21:39:53.464Z,100467.80
2022-08-21T21:42:35.602Z,100465.68
2022-08-21T21:45:18.243Z,100457.63
2022-08-21T21:48:03.364Z,100461.02
2022-08-21T21:50:52.111Z,100465.38
2022-08-21T21:53:37.548Z,100466.89
2022-08-21T21:56:19.792Z,100466.88
2022-08-21T21:59:11.272Z,100463.30
2022-08-21T22:01:50.204Z,100462.98
2022-08-21T22:04:31.818Z,100459.48
2022-08-21T22:07:11.078Z,100464.61
2022-08-21T22:09:47.474Z,100464.91
2022-08-21T22:12:49.826Z,100465.34
2022-08-21T22:15:27.532Z,100459.97
2022-08-21T22:18:20.213Z,100458.27
2022-08-21T22:20:56.481Z,100455.22
2022-08-21T22:23:33.001Z,100457.42
2022-08-21T22:26:10.277Z,100457.05
2022-08-21T22:28:44.304Z,100458.62
2022-08-21T22:31:21.708Z,100458.59
2022-08-21T22:34:18.441Z,100453.88
2022-08-21T22:36:59.349Z,100458.02
2022-08-21T22:39:39.066Z,100454.52
2022-08-21T22:42:14.601Z,100452.52
2022-08-21T22:44:56.348Z,100450.41
2022-08-21T22:47:36.806Z,100451.45
2022-08-21T22:50:17.872Z,100448.61
2022-08-21T22:52:53.095Z,100443.45
2022-08-21T22:55:30.403Z,100445.50
2022-08-21T22:58:09.065Z,100444.90
2022-08-21T23:00:49.216Z,100441.80
2022-08-21T23:03:32.648Z,100438.88
2022-08-21T23:06:21.813Z,100438.52
2022-08-21T23:08:54.425Z,100434.77
2022-08-21T23:11:37.248Z,100434.14
2022-08-21T23:14:14.421Z,100436.78
2022-08-21T23:16:54.344Z,100426.61
2022-08-21T23:19:38.470Z,100429.67
2022-08-21T23:22:29.955Z,100428.99
2022-08-21T23:25:16.737Z,100432.10
2022-08-21T23:28:03.808Z,100434.77
2022-08-21T23:30:44.933Z,100438.23
2022-08-21T23:33:52.135Z,100435.50
2022-08-21T23:36:54.099Z,100434.45
2022-08-21T23:39:43.451Z,100433.29
2022-08-21T23:42:27.428Z,100429.23
2022-08-21T23:45:14.075Z,100426.45
2022-08-21T23:47:58.400Z,100432.36
2022-08-21T23:50:37.909Z,100428.61
2022-08-21T23:53:22.623Z,100429.39
2022-08-21T23:56:05.404Z,100432.46
2022-08-21T23:58:46.593Z,100429.27
